Time;durP1;ratioP1;P1;durP2;ratioP2;P2;SDS_P1;SDS_P2;PMS_P1;PMS_P2;Temp;Humidity;BMP_temperature;BMP_pressure;BME280_temperature;BME280_humidity;BME280_pressure;Samples;Min_cycle;Max_cycle;Signal;HPM_P1;HPM_P2
2023/10/29 00:01:41;;;;;;;815.72;732.83;;;;;;;;;;4900726;29;20060;-93
2023/10/29 00:04:10;;;;;;;823.95;743.95;;;;;;;;;;4884830;29;20024;-92
2023/10/29 00:06:42;;;;;;;823.33;738.72;;;;;;;;;;4884635;29;20087;-91
2023/10/29 00:09:19;;;;;;;861.20;777.28;;;;;;;;;;4884602;29;20025;-90
2023/10/29 00:11:49;;;;;;;807.00;723.72;;;;;;;;;;4886533;29;20128;-90
2023/10/29 00:14:21;;;;;;;830.22;744.55;;;;;;;;;;4886537;29;20032;-92
2023/10/29 00:16:50;;;;;;;771.85;690.47;;;;;;;;;;4884896;29;20040;-90
2023/10/29 00:19:19;;;;;;;757.47;680.60;;;;;;;;;;4884325;29;20044;-91
2023/10/29 00:21:48;;;;;;;799.38;715.63;;;;;;;;;;4884793;29;20036;-90
2023/10/29 00:24:37;;;;;;;815.05;727.53;;;;;;;;;;4884457;29;20089;-90
2023/10/29 00:27:05;;;;;;;806.08;724.08;;;;;;;;;;4903354;29;20456;-90
2023/10/29 00:29:34;;;;;;;818.08;733.83;;;;;;;;;;4921594;29;20090;-90
2023/10/29 00:32:03;;;;;;;921.60;828.58;;;;;;;;;;4925547;29;20084;-91
2023/10/29 00:34:29;;;;;;;837.30;752.80;;;;;;;;;;4932372;29;20047;-91
2023/10/29 00:36:58;;;;;;;853.20;765.33;;;;;;;;;;4923586;29;20028;-90
2023/10/29 00:39:30;;;;;;;881.90;790.83;;;;;;;;;;4923057;29;20044;-90
2023/10/29 00:41:59;;;;;;;843.03;756.55;;;;;;;;;;4922696;29;20039;-91
2023/10/29 00:44:37;;;;;;;809.95;728.67;;;;;;;;;;4922444;29;20032;-91
2023/10/29 00:47:13;;;;;;;813.50;728.40;;;;;;;;;;4922600;29;20099;-91
2023/10/29 00:49:45;;;;;;;843.28;755.03;;;;;;;;;;4921836;29;20481;-91
2023/10/29 00:52:13;;;;;;;837.40;749.47;;;;;;;;;;4923133;29;20039;-91
2023/10/29 00:54:42;;;;;;;831.08;744.50;;;;;;;;;;4921732;29;20036;-90
2023/10/29 00:57:15;;;;;;;865.38;774.30;;;;;;;;;;4922435;29;20027;-91
2023/10/29 00:59:41;;;;;;;866.87;774.33;;;;;;;;;;4922514;29;20393;-90
2023/10/29 01:02:11;;;;;;;848.28;763.30;;;;;;;;;;4923306;29;20031;-91
2023/10/29 01:04:37;;;;;;;893.83;803.10;;;;;;;;;;4922476;29;20039;-91
2023/10/29 01:07:16;;;;;;;817.72;734.85;;;;;;;;;;4922324;29;20037;-91
2023/10/29 01:09:46;;;;;;;816.72;734.58;;;;;;;;;;4909266;29;20064;-90
2023/10/29 01:12:21;;;;;;;858.50;773.17;;;;;;;;;;4924773;29;20091;-91
2023/10/29 01:14:47;;;;;;;827.90;746.58;;;;;;;;;;4904405;29;20495;-91
2023/10/29 01:17:23;;;;;;;854.75;764.15;;;;;;;;;;4902903;29;20068;-90
2023/10/29 01:19:52;;;;;;;821.03;736.58;;;;;;;;;;4904461;29;20032;-91
2023/10/29 01:22:27;;;;;;;858.00;769.70;;;;;;;;;;4903844;29;20032;-91
2023/10/29 01:24:53;;;;;;;925.45;822.03;;;;;;;;;;4903478;29;20040;-90
2023/10/29 01:27:22;;;;;;;793.97;716.55;;;;;;;;;;4903060;29;20482;-91
2023/10/29 01:29:49;;;;;;;808.78;725.35;;;;;;;;;;4903232;29;20032;-91
2023/10/29 01:32:18;;;;;;;874.72;781.03;;;;;;;;;;4911409;29;20035;-91
2023/10/29 01:34:47;;;;;;;895.15;803.33;;;;;;;;;;4909871;29;20040;-90
2023/10/29 01:37:16;;;;;;;845.47;758.88;;;;;;;;;;4902798;29;20055;-90
2023/10/29 01:40:01;;;;;;;866.20;775.03;;;;;;;;;;4902714;29;20035;-90
2023/10/29 01:42:33;;;;;;;891.97;794.53;;;;;;;;;;4902922;29;20402;-90
2023/10/29 01:45:05;;;;;;;835.22;746.72;;;;;;;;;;4902922;29;20459;-90
2023/10/29 01:47:31;;;;;;;891.42;797.42;;;;;;;;;;4902619;29;20048;-92
2023/10/29 01:49:57;;;;;;;862.85;771.25;;;;;;;;;;4903060;29;20032;-90
2023/10/29 01:52:29;;;;;;;811.42;728.78;;;;;;;;;;4903264;29;20114;-91
2023/10/29 01:54:58;;;;;;;810.35;724.95;;;;;;;;;;4904291;29;20139;-91
2023/10/29 01:57:24;;;;;;;839.17;751.58;;;;;;;;;;4933263;29;20024;-90
2023/10/29 01:59:57;;;;;;;803.83;719.90;;;;;;;;;;4951645;29;20032;-89
2023/10/29 02:02:26;;;;;;;881.60;787.47;;;;;;;;;;4928261;29;20103;-90
2023/10/29 02:04:56;;;;;;;873.95;786.53;;;;;;;;;;4933186;29;20052;-91
2023/10/29 02:07:22;;;;;;;836.90;754.47;;;;;;;;;;4922179;29;20032;-90
2023/10/29 02:09:54;;;;;;;801.50;718.65;;;;;;;;;;4922672;29;20024;-92
2023/10/29 02:18:25;;;;;;;863.90;772.20;;;;;;;;;;4918002;29;20058;-92
2023/10/29 02:21:00;;;;;;;856.65;767.83;;;;;;;;;;4902476;29;20060;-91
2023/10/29 02:23:27;;;;;;;876.25;783.88;;;;;;;;;;4908459;29;20032;-90
2023/10/29 02:25:58;;;;;;;874.33;780.10;;;;;;;;;;4903403;29;20044;-91
2023/10/29 02:28:28;;;;;;;856.65;767.00;;;;;;;;;;4901859;29;20127;-91
2023/10/29 02:31:05;;;;;;;886.35;793.85;;;;;;;;;;4901516;29;20028;-92
2023/10/29 02:33:38;;;;;;;821.65;736.20;;;;;;;;;;4901553;29;20036;-91
2023/10/29 02:36:07;;;;;;;881.42;789.80;;;;;;;;;;4901380;29;20032;-92
2023/10/29 02:38:51;;;;;;;848.20;761.42;;;;;;;;;;4901565;29;20299;-91
2023/10/29 02:41:20;;;;;;;822.92;739.33;;;;;;;;;;4901383;29;20067;-91
2023/10/29 02:43:50;;;;;;;847.75;763.17;;;;;;;;;;4918238;29;20560;-92
2023/10/29 02:46:19;;;;;;;830.05;742.25;;;;;;;;;;4901885;29;20024;-91
2023/10/29 02:48:48;;;;;;;888.97;793.20;;;;;;;;;;4910884;29;20043;-91
2023/10/29 02:51:17;;;;;;;886.22;793.65;;;;;;;;;;4916289;29;20047;-91
2023/10/29 02:53:46;;;;;;;875.30;782.22;;;;;;;;;;4902865;29;20032;-91
2023/10/29 02:56:15;;;;;;;923.28;824.10;;;;;;;;;;4902573;29;20082;-90
2023/10/29 02:58:47;;;;;;;871.20;784.13;;;;;;;;;;4902811;29;20485;-90
2023/10/29 03:01:16;;;;;;;832.03;744.67;;;;;;;;;;4903475;29;20739;-92
2023/10/29 03:03:48;;;;;;;831.83;747.58;;;;;;;;;;4903392;29;20096;-91
2023/10/29 03:06:17;;;;;;;850.42;765.95;;;;;;;;;;4904159;29;20063;-91
2023/10/29 03:08:49;;;;;;;875.63;783.83;;;;;;;;;;4903343;29;20039;-91
2023/10/29 03:11:19;;;;;;;891.60;796.90;;;;;;;;;;4910421;29;20020;-91
2023/10/29 03:13:48;;;;;;;862.85;773.67;;;;;;;;;;4928937;29;20036;-90
2023/10/29 03:16:46;;;;;;;799.42;717.60;;;;;;;;;;4922531;29;20091;-91
2023/10/29 03:22:28;;;;;;;767.38;686.55;;;;;;;;;;4944728;23;20413;-92
2023/10/29 03:24:57;;;;;;;849.50;762.33;;;;;;;;;;4927499;29;20036;-91
2023/10/29 03:27:29;;;;;;;859.70;774.03;;;;;;;;;;4926403;29;20111;-91
2023/10/29 03:30:24;;;;;;;884.78;792.90;;;;;;;;;;4939552;29;20043;-91
2023/10/29 03:32:53;;;;;;;839.85;757.75;;;;;;;;;;4926908;29;20110;-93
2023/10/29 03:35:19;;;;;;;873.97;783.30;;;;;;;;;;4927036;29;20107;-92
2023/10/29 03:38:04;;;;;;;824.00;741.65;;;;;;;;;;4925118;29;20050;-91
2023/10/29 03:40:43;;;;;;;817.17;732.30;;;;;;;;;;4912103;29;20056;-90
2023/10/29 03:43:21;;;;;;;750.53;674.83;;;;;;;;;;4911642;29;20036;-92
2023/10/29 03:45:48;;;;;;;789.17;709.03;;;;;;;;;;4909711;29;20123;-91
2023/10/29 03:48:20;;;;;;;786.40;703.60;;;;;;;;;;4929644;29;20060;-91
2023/10/29 03:50:57;;;;;;;838.83;751.47;;;;;;;;;;4940648;29;20032;-90
2023/10/29 03:53:23;;;;;;;748.55;670.75;;;;;;;;;;4909616;29;20123;-91
2023/10/29 03:55:51;;;;;;;789.05;708.28;;;;;;;;;;4911969;29;20020;-91
2023/10/29 03:58:23;;;;;;;811.90;729.92;;;;;;;;;;5036078;23;20051;-91
2023/10/29 04:01:08;;;;;;;781.15;700.97;;;;;;;;;;4918690;29;20036;-92
2023/10/29 04:03:34;;;;;;;761.30;683.05;;;;;;;;;;4909476;29;20501;-91
2023/10/29 04:22:18;;;;;;;757.47;678.38;;;;;;;;;;5749981;23;20022;31
2023/10/29 04:24:47;;;;;;;682.97;614.60;;;;;;;;;;4990853;23;20054;-92
2023/10/29 04:27:16;;;;;;;833.95;749.95;;;;;;;;;;4938488;29;20032;-91
2023/10/29 04:29:46;;;;;;;756.33;677.88;;;;;;;;;;4939205;29;20604;-91
2023/10/29 04:32:14;;;;;;;788.60;707.75;;;;;;;;;;4938473;29;20119;-92
2023/10/29 04:34:41;;;;;;;728.88;655.53;;;;;;;;;;4938460;29;20024;-91
2023/10/29 04:37:12;;;;;;;766.33;688.55;;;;;;;;;;4938077;29;20038;-92
2023/10/29 04:39:46;;;;;;;762.42;686.88;;;;;;;;;;4937954;29;20039;-92
2023/10/29 04:42:15;;;;;;;745.20;671.33;;;;;;;;;;4938335;29;20030;-91
2023/10/29 04:44:41;;;;;;;748.33;674.17;;;;;;;;;;4938066;29;20042;-92
2023/10/29 04:47:12;;;;;;;717.40;651.15;;;;;;;;;;4939015;29;20019;-92
2023/10/29 04:49:43;;;;;;;758.92;681.33;;;;;;;;;;4937891;29;20389;-91
2023/10/29 04:52:12;;;;;;;729.05;658.95;;;;;;;;;;4937990;29;20036;-92
2023/10/29 04:55:06;;;;;;;;;;;;;;;;;;;;;
2023/10/29 04:57:38;;;;;;;;;;;;;;;;;;;;;
2023/10/29 05:00:12;;;;;;;698.70;625.03;;;;;;;;;;4940866;29;20080;-93
2023/10/29 05:02:41;;;;;;;737.90;662.30;;;;;;;;;;4952485;29;20043;-93
2023/10/29 05:05:11;;;;;;;758.38;676.67;;;;;;;;;;4952419;29;20044;-91
2023/10/29 05:10:46;;;;;;;729.13;660.90;;;;;;;;;;4937250;29;20420;-92
2023/10/29 05:13:15;;;;;;;717.73;642.90;;;;;;;;;;4917179;29;20050;-91
2023/10/29 05:15:47;;;;;;;809.25;723.60;;;;;;;;;;4925890;29;20032;-91
2023/10/29 05:18:16;;;;;;;783.80;700.08;;;;;;;;;;4921988;29;20039;-92
2023/10/29 05:20:42;;;;;;;734.85;659.30;;;;;;;;;;4921221;29;20036;-91
2023/10/29 05:23:11;;;;;;;726.25;650.47;;;;;;;;;;4918999;29;20036;-91
2023/10/29 05:25:39;;;;;;;747.38;673.88;;;;;;;;;;4901856;29;20083;-92
2023/10/29 05:28:08;;;;;;;710.88;638.75;;;;;;;;;;4890938;29;20043;-92
2023/10/29 05:30:38;;;;;;;715.65;649.53;;;;;;;;;;4882761;29;20028;-91
2023/10/29 05:33:23;;;;;;;764.03;685.17;;;;;;;;;;4882451;29;20165;-91
2023/10/29 05:35:49;;;;;;;706.28;636.33;;;;;;;;;;4882463;29;20040;-91
2023/10/29 05:38:17;;;;;;;823.10;742.75;;;;;;;;;;4896746;29;20059;-91
2023/10/29 05:40:44;;;;;;;682.13;614.78;;;;;;;;;;4917849;29;20533;-90
2023/10/29 05:43:12;;;;;;;674.60;608.55;;;;;;;;;;4919012;29;20051;-92
2023/10/29 05:45:39;;;;;;;29.83;20.90;;;;;;;;;;4918050;29;20032;-91
2023/10/29 05:48:07;;;;;;;11.25;7.30;;;;;;;;;;4918253;29;20060;-91
2023/10/29 05:50:40;;;;;;;9.70;5.55;;;;;;;;;;4914210;29;20028;-91
2023/10/29 05:53:09;;;;;;;10.23;6.07;;;;;;;;;;4900883;29;20041;-91
2023/10/29 05:55:40;;;;;;;11.85;6.43;;;;;;;;;;4919598;29;20032;-92
2023/10/29 05:58:19;;;;;;;12.35;7.10;;;;;;;;;;4898213;29;20084;-91
2023/10/29 06:00:54;;;;;;;10.25;6.80;;;;;;;;;;4882608;29;20036;-91
2023/10/29 06:03:20;;;;;;;10.85;7.78;;;;;;;;;;4889874;29;20021;-92
2023/10/29 06:05:52;;;;;;;10.48;7.70;;;;;;;;;;4875245;29;20139;-91
2023/10/29 06:08:37;;;;;;;11.85;7.13;;;;;;;;;;4880514;29;20061;-92
2023/10/29 06:11:24;;;;;;;10.48;7.30;;;;;;;;;;4864371;29;20100;-91
2023/10/29 06:19:56;;;;;;;9.77;8.02;;;;;;;;;;4861380;29;20052;-91
2023/10/29 06:22:25;;;;;;;14.10;9.60;;;;;;;;;;4845934;29;20499;-92
2023/10/29 06:24:52;;;;;;;15.85;10.07;;;;;;;;;;4860344;29;20064;-91
2023/10/29 06:30:08;;;;;;;12.32;9.57;;;;;;;;;;4931145;29;20508;-93
2023/10/29 06:32:43;;;;;;;12.75;9.88;;;;;;;;;;4919937;29;20079;-91
2023/10/29 06:35:18;;;;;;;15.48;9.68;;;;;;;;;;4919993;29;20039;-92
2023/10/29 06:37:48;;;;;;;19.75;12.35;;;;;;;;;;4919808;29;20078;-91
2023/10/29 06:40:21;;;;;;;16.38;12.55;;;;;;;;;;4916546;29;20049;-91
2023/10/29 06:43:05;;;;;;;13.50;10.18;;;;;;;;;;4915092;29;20039;-92
2023/10/29 06:45:33;;;;;;;12.90;9.95;;;;;;;;;;4898532;29;20045;-91
2023/10/29 06:48:01;;;;;;;16.98;12.15;;;;;;;;;;4898988;29;20040;-91
2023/10/29 06:50:27;;;;;;;13.32;9.15;;;;;;;;;;4902608;29;20137;-92
2023/10/29 06:53:07;;;;;;;17.25;11.25;;;;;;;;;;4902269;29;20037;-92
2023/10/29 06:55:43;;;;;;;21.17;12.05;;;;;;;;;;4902139;29;20115;-92
2023/10/29 06:58:09;;;;;;;15.60;11.55;;;;;;;;;;4898250;29;20044;-91
2023/10/29 07:00:44;;;;;;;13.82;10.30;;;;;;;;;;4884310;29;20069;-92
2023/10/29 07:03:19;;;;;;;11.68;9.68;;;;;;;;;;4867595;29;20037;-91
2023/10/29 07:05:50;;;;;;;14.55;9.10;;;;;;;;;;4867862;29;20068;-91
2023/10/29 07:08:22;;;;;;;13.40;9.23;;;;;;;;;;4867240;29;20043;-91
2023/10/29 07:10:57;;;;;;;11.70;10.10;;;;;;;;;;4867792;29;20041;-92
2023/10/29 07:13:26;;;;;;;13.50;10.00;;;;;;;;;;4881709;29;20056;-92
2023/10/29 07:15:55;;;;;;;12.20;8.77;;;;;;;;;;4890195;29;20043;-92
2023/10/29 07:18:42;;;;;;;11.85;8.50;;;;;;;;;;4919861;29;20127;-92
2023/10/29 07:21:10;;;;;;;10.23;7.95;;;;;;;;;;4920347;29;20028;-92
2023/10/29 07:23:43;;;;;;;10.85;7.95;;;;;;;;;;4920034;29;20040;-91
2023/10/29 07:26:14;;;;;;;9.68;8.27;;;;;;;;;;4920060;29;20024;-92
2023/10/29 07:28:49;;;;;;;9.65;6.47;;;;;;;;;;4921606;29;20044;-92
2023/10/29 07:31:21;;;;;;;9.10;7.45;;;;;;;;;;4933775;29;20036;-92
2023/10/29 07:33:58;;;;;;;9.15;7.47;;;;;;;;;;4940357;29;20465;-92
2023/10/29 07:36:24;;;;;;;9.63;6.03;;;;;;;;;;4936966;29;20047;-91
2023/10/29 07:38:59;;;;;;;11.52;6.03;;;;;;;;;;4923188;29;20047;-91
2023/10/29 07:41:25;;;;;;;10.57;6.47;;;;;;;;;;4934805;29;20031;-91
2023/10/29 07:43:54;;;;;;;9.27;5.85;;;;;;;;;;4925179;29;20102;-91
2023/10/29 07:46:23;;;;;;;9.23;6.03;;;;;;;;;;4929924;29;20151;-93
2023/10/29 07:48:55;;;;;;;15.55;8.30;;;;;;;;;;4910821;29;20036;-92
2023/10/29 07:51:30;;;;;;;10.88;7.50;;;;;;;;;;4904368;29;20036;-92
2023/10/29 07:54:06;;;;;;;9.85;6.68;;;;;;;;;;4911069;29;20024;-92
2023/10/29 07:56:39;;;;;;;8.32;6.50;;;;;;;;;;4932961;29;20053;-93
2023/10/29 07:59:05;;;;;;;8.05;6.05;;;;;;;;;;4923554;29;20032;-92
2023/10/29 08:01:31;;;;;;;11.65;6.85;;;;;;;;;;4922386;29;20091;-92
2023/10/29 08:04:00;;;;;;;10.02;7.80;;;;;;;;;;4929648;29;20028;-92
2023/10/29 08:06:32;;;;;;;11.98;7.45;;;;;;;;;;4929683;29;20111;-91
2023/10/29 08:08:58;;;;;;;9.88;7.25;;;;;;;;;;4940121;29;20036;-91
2023/10/29 08:11:33;;;;;;;9.95;8.20;;;;;;;;;;4926663;29;20137;-91
2023/10/29 08:14:05;;;;;;;9.88;6.57;;;;;;;;;;4899927;29;20048;-93
2023/10/29 08:16:53;;;;;;;10.15;7.25;;;;;;;;;;4884662;29;20040;-92
2023/10/29 08:19:29;;;;;;;8.90;7.47;;;;;;;;;;4841393;29;20068;-92
2023/10/29 08:21:58;;;;;;;10.75;7.13;;;;;;;;;;4835795;29;20487;-92
2023/10/29 08:24:50;;;;;;;11.00;6.82;;;;;;;;;;4829436;29;20054;-91
2023/10/29 08:27:19;;;;;;;10.05;6.85;;;;;;;;;;4835296;29;20085;-91
2023/10/29 08:29:49;;;;;;;8.60;6.35;;;;;;;;;;4844385;29;20042;-91
2023/10/29 08:32:18;;;;;;;12.18;6.82;;;;;;;;;;4843987;29;20026;-91
2023/10/29 08:34:50;;;;;;;7.10;6.18;;;;;;;;;;4844337;29;20136;-91
2023/10/29 08:37:20;;;;;;;10.50;6.70;;;;;;;;;;4869401;29;20126;-91
2023/10/29 08:39:50;;;;;;;9.80;5.38;;;;;;;;;;4906154;29;20040;-92
2023/10/29 08:42:21;;;;;;;10.23;5.50;;;;;;;;;;4900608;29;20040;-92
2023/10/29 08:44:47;;;;;;;8.10;5.40;;;;;;;;;;4897939;29;20180;-91
2023/10/29 08:47:19;;;;;;;8.35;6.07;;;;;;;;;;4919078;29;20035;-93
2023/10/29 08:49:52;;;;;;;8.73;6.82;;;;;;;;;;4921021;29;20024;-91
2023/10/29 08:52:18;;;;;;;10.07;6.75;;;;;;;;;;4919257;29;20481;-91
2023/10/29 08:54:45;;;;;;;9.50;5.95;;;;;;;;;;4919935;29;20050;-92
2023/10/29 08:57:14;;;;;;;8.45;6.00;;;;;;;;;;4919392;29;20033;-92
2023/10/29 08:59:43;;;;;;;9.52;5.63;;;;;;;;;;4918828;29;20127;-93
2023/10/29 09:02:09;;;;;;;8.18;4.85;;;;;;;;;;4919013;29;20493;-92
2023/10/29 09:04:47;;;;;;;8.35;5.13;;;;;;;;;;4919829;29;20028;-92
2023/10/29 09:07:14;;;;;;;10.07;6.35;;;;;;;;;;4918931;29;20087;-92
2023/10/29 09:09:49;;;;;;;9.82;5.53;;;;;;;;;;4919031;29;20381;-92
2023/10/29 09:12:15;;;;;;;9.18;5.40;;;;;;;;;;4918405;29;20032;-93
2023/10/29 09:14:53;;;;;;;9.02;5.60;;;;;;;;;;4919042;29;20541;-92
2023/10/29 09:17:25;;;;;;;10.63;5.88;;;;;;;;;;4918815;29;20030;-92
2023/10/29 09:20:03;;;;;;;7.93;5.03;;;;;;;;;;4919648;29;20032;-92
2023/10/29 09:22:36;;;;;;;8.38;4.15;;;;;;;;;;4925491;29;20495;-92
2023/10/29 09:25:02;;;;;;;9.80;5.22;;;;;;;;;;4937648;29;20067;-92
2023/10/29 09:27:34;;;;;;;7.97;4.85;;;;;;;;;;4937574;29;20027;-92
2023/10/29 09:30:03;;;;;;;8.48;5.13;;;;;;;;;;4935422;29;20035;-92
2023/10/29 09:32:59;;;;;;;;;;;;;;;;;;;;;
2023/10/29 09:35:29;;;;;;;8.80;5.15;;;;;;;;;;4880827;29;20054;-91
2023/10/29 09:37:55;;;;;;;6.57;4.32;;;;;;;;;;4902959;29;20071;-90
2023/10/29 09:40:31;;;;;;;7.45;4.88;;;;;;;;;;4939257;29;20036;-91
2023/10/29 09:43:14;;;;;;;6.85;4.72;;;;;;;;;;4909488;29;20032;-92
2023/10/29 09:46:05;;;;;;;8.20;5.03;;;;;;;;;;4923038;29;20028;-91
2023/10/29 09:48:34;;;;;;;7.72;4.90;;;;;;;;;;4940698;29;20071;-91
2023/10/29 09:51:13;;;;;;;9.75;7.30;;;;;;;;;;4930905;29;20044;-91
2023/10/29 09:53:57;;;;;;;10.45;7.63;;;;;;;;;;4916570;29;20539;-91
2023/10/29 09:56:27;;;;;;;11.90;7.80;;;;;;;;;;4936661;29;20047;-90
2023/10/29 09:58:56;;;;;;;10.32;7.22;;;;;;;;;;4923530;29;20044;-91
2023/10/29 10:01:29;;;;;;;9.70;7.65;;;;;;;;;;4911328;29;20111;-92
2023/10/29 10:03:55;;;;;;;9.70;6.82;;;;;;;;;;4918703;29;20047;-91
2023/10/29 10:06:29;;;;;;;12.95;7.30;;;;;;;;;;4919644;29;20028;-92
2023/10/29 10:09:02;;;;;;;11.00;7.20;;;;;;;;;;4918158;29;20032;-91
2023/10/29 10:11:28;;;;;;;8.80;6.32;;;;;;;;;;4920278;29;20024;-92
2023/10/29 10:14:00;;;;;;;10.63;6.25;;;;;;;;;;4918916;29;20036;-91
2023/10/29 10:16:26;;;;;;;8.30;6.47;;;;;;;;;;4918291;29;20024;-92
2023/10/29 10:19:02;;;;;;;7.90;5.25;;;;;;;;;;4918146;29;20036;-92
2023/10/29 10:21:48;;;;;;;9.50;5.30;;;;;;;;;;4924749;29;20086;-92
2023/10/29 10:24:19;;;;;;;7.30;3.90;;;;;;;;;;4924068;29;20103;-91
2023/10/29 10:26:48;;;;;;;11.05;5.25;;;;;;;;;;4917912;29;20510;-91
2023/10/29 10:32:45;;;;;;;8.60;4.97;;;;;;;;;;4919564;29;20039;-92
2023/10/29 10:47:50;;;;;;;8.25;5.80;;;;;;;;;;4938503;29;20091;-91
2023/10/29 10:50:23;;;;;;;8.75;6.00;;;;;;;;;;4937071;29;20039;-93
2023/10/29 10:52:56;;;;;;;6.97;5.25;;;;;;;;;;4936815;29;20027;-92
2023/10/29 10:55:22;;;;;;;;;;;;;;;;;;4938013;29;20042;-92
2023/10/29 10:57:52;;;;;;;7.88;5.80;;;;;;;;;;4955560;29;19910;-93
2023/10/29 11:00:21;;;;;;;9.45;5.72;;;;;;;;;;4937277;29;20035;-90
2023/10/29 11:02:52;;;;;;;9.82;6.10;;;;;;;;;;4937296;29;20036;-92
2023/10/29 11:05:29;;;;;;;9.18;5.80;;;;;;;;;;4951735;28;20024;-90
2023/10/29 11:08:02;;;;;;;8.73;5.30;;;;;;;;;;4937809;29;20051;-91
2023/10/29 11:10:44;;;;;;;8.23;5.13;;;;;;;;;;4922082;29;20172;-91
2023/10/29 11:13:26;;;;;;;12.32;5.22;;;;;;;;;;4918625;29;20359;-93
2023/10/29 11:16:10;;;;;;;10.15;5.32;;;;;;;;;;4918084;29;20028;-91
2023/10/29 11:18:37;;;;;;;9.15;6.00;;;;;;;;;;4918600;29;20040;-91
2023/10/29 11:21:12;;;;;;;9.20;7.95;;;;;;;;;;4916776;29;20391;-91
2023/10/29 11:23:44;;;;;;;8.10;5.68;;;;;;;;;;4900955;29;20841;-91
2023/10/29 11:26:27;;;;;;;9.30;7.10;;;;;;;;;;4936130;29;20509;-90
2023/10/29 11:31:48;;;;;;;10.60;6.70;;;;;;;;;;4936138;29;20036;-91
2023/10/29 11:34:17;;;;;;;10.00;6.35;;;;;;;;;;4942300;29;20059;-90
2023/10/29 11:36:52;;;;;;;8.82;6.50;;;;;;;;;;4952432;28;20059;-94
2023/10/29 11:39:44;;;;;;;8.13;5.78;;;;;;;;;;4928453;29;20062;-92
2023/10/29 11:42:26;;;;;;;7.20;6.50;;;;;;;;;;4930942;29;20032;-92
2023/10/29 11:45:14;;;;;;;7.93;5.40;;;;;;;;;;4904922;29;20048;-92
2023/10/29 11:47:59;;;;;;;6.28;3.35;;;;;;;;;;4905877;29;20043;-91
2023/10/29 11:50:36;;;;;;;8.48;4.80;;;;;;;;;;4904776;29;20036;-91
2023/10/29 11:53:03;;;;;;;6.70;3.60;;;;;;;;;;4919214;29;20075;-91
2023/10/29 11:56:05;;;;;;;9.15;3.97;;;;;;;;;;4920823;29;20031;-90
2023/10/29 11:58:37;;;;;;;6.70;4.30;;;;;;;;;;4881853;29;20047;-91
2023/10/29 12:01:06;;;;;;;7.97;3.22;;;;;;;;;;4921295;29;20028;-90
2023/10/29 12:03:38;;;;;;;5.97;3.67;;;;;;;;;;4921267;29;20063;-91
2023/10/29 12:06:10;;;;;;;5.78;3.67;;;;;;;;;;4920744;29;20032;-91
2023/10/29 12:11:40;;;;;;;7.15;4.45;;;;;;;;;;4921804;29;20031;-90
2023/10/29 12:14:32;;;;;;;5.57;4.30;;;;;;;;;;4915749;29;20106;-91
2023/10/29 12:17:01;;;;;;;5.80;3.58;;;;;;;;;;4872459;29;20030;-90
2023/10/29 12:19:52;;;;;;;9.13;4.43;;;;;;;;;;4868287;29;20082;-91
2023/10/29 12:22:30;;;;;;;5.25;3.85;;;;;;;;;;4906915;29;20028;-91
2023/10/29 12:25:00;;;;;;;8.65;3.60;;;;;;;;;;4921225;29;20573;-91
2023/10/29 12:27:31;;;;;;;5.97;3.33;;;;;;;;;;4921782;29;20035;-91
2023/10/29 12:29:57;;;;;;;8.77;5.57;;;;;;;;;;4920595;29;20036;-92
2023/10/29 12:32:30;;;;;;;9.20;3.72;;;;;;;;;;4921299;29;20191;-91
2023/10/29 12:35:00;;;;;;;6.10;3.40;;;;;;;;;;4920339;29;20024;-91
2023/10/29 12:37:33;;;;;;;4.78;3.38;;;;;;;;;;4921208;29;20032;-91
2023/10/29 12:40:05;;;;;;;8.20;3.28;;;;;;;;;;4922093;29;20408;-90
2023/10/29 12:42:56;;;;;;;8.82;4.35;;;;;;;;;;4936075;29;20028;-91
2023/10/29 12:45:26;;;;;;;7.15;3.83;;;;;;;;;;4937026;29;20509;-90
2023/10/29 12:48:13;;;;;;;8.15;4.95;;;;;;;;;;4936840;29;20052;-91
2023/10/29 12:50:54;;;;;;;7.65;5.05;;;;;;;;;;4933622;29;20028;-90
2023/10/29 12:53:31;;;;;;;5.40;4.65;;;;;;;;;;4939803;29;20071;-91
2023/10/29 12:56:01;;;;;;;5.78;4.15;;;;;;;;;;4939531;29;20477;-91
2023/10/29 12:58:30;;;;;;;7.32;2.65;;;;;;;;;;4939591;29;20035;-91
2023/10/29 13:00:59;;;;;;;5.85;2.80;;;;;;;;;;4938740;29;20028;-92
2023/10/29 13:03:26;;;;;;;7.32;2.75;;;;;;;;;;4930922;29;20032;-91
2023/10/29 13:05:55;;;;;;;5.10;3.42;;;;;;;;;;4920425;29;20047;-92
2023/10/29 13:08:28;;;;;;;6.07;3.53;;;;;;;;;;4920609;29;20031;-92
2023/10/29 13:10:55;;;;;;;8.40;2.83;;;;;;;;;;4920321;29;20500;-91
2023/10/29 13:13:25;;;;;;;6.80;2.90;;;;;;;;;;4921669;29;20028;-91
2023/10/29 13:15:51;;;;;;;6.97;2.65;;;;;;;;;;4932867;29;20023;-92
2023/10/29 13:18:20;;;;;;;7.45;2.53;;;;;;;;;;4940203;29;20036;-91
2023/10/29 13:20:58;;;;;;;7.60;2.60;;;;;;;;;;4940331;29;20035;-92
2023/10/29 13:23:30;;;;;;;6.40;2.42;;;;;;;;;;4941582;29;20114;-91
2023/10/29 13:26:00;;;;;;;4.90;2.60;;;;;;;;;;4926556;29;20040;-91
2023/10/29 13:28:29;;;;;;;7.18;3.20;;;;;;;;;;4978654;23;20031;-90
2023/10/29 13:30:58;;;;;;;7.15;2.80;;;;;;;;;;4938833;29;20043;-90
2023/10/29 13:33:39;;;;;;;4.65;2.45;;;;;;;;;;4928603;29;20087;-92
2023/10/29 13:36:14;;;;;;;5.85;2.30;;;;;;;;;;4928373;29;20035;-92
2023/10/29 13:38:51;;;;;;;9.23;3.50;;;;;;;;;;4930075;29;20019;-93
2023/10/29 13:41:29;;;;;;;10.55;4.10;;;;;;;;;;4913709;29;20409;-92
2023/10/29 13:43:58;;;;;;;6.63;3.42;;;;;;;;;;4902120;29;20028;-91
2023/10/29 13:46:28;;;;;;;6.65;3.40;;;;;;;;;;4901916;29;20038;-91
2023/10/29 13:48:58;;;;;;;6.25;3.30;;;;;;;;;;4902461;29;20393;-91
2023/10/29 13:51:27;;;;;;;6.60;3.00;;;;;;;;;;4902951;29;20374;-92
2023/10/29 13:53:56;;;;;;;7.75;2.80;;;;;;;;;;4902334;29;20032;-91
2023/10/29 13:56:22;;;;;;;7.53;2.60;;;;;;;;;;4919858;29;20027;-92
2023/10/29 13:58:51;;;;;;;8.25;2.40;;;;;;;;;;4922481;29;20110;-92
2023/10/29 14:01:22;;;;;;;7.78;2.53;;;;;;;;;;4932497;29;20016;-91
2023/10/29 14:04:11;;;;;;;6.43;2.50;;;;;;;;;;4947949;29;20107;-91
2023/10/29 14:06:41;;;;;;;7.28;2.78;;;;;;;;;;4928074;29;20389;-92
2023/10/29 14:09:14;;;;;;;7.63;2.38;;;;;;;;;;4922101;29;20384;-91
2023/10/29 14:11:40;;;;;;;6.75;2.70;;;;;;;;;;4922440;29;20043;-91
2023/10/29 14:14:09;;;;;;;6.43;2.72;;;;;;;;;;4922106;29;20024;-92
2023/10/29 14:16:42;;;;;;;7.57;1.90;;;;;;;;;;4905228;29;20032;-92
2023/10/29 14:19:09;;;;;;;6.45;2.53;;;;;;;;;;4922301;29;20044;-92
2023/10/29 14:21:41;;;;;;;5.78;2.58;;;;;;;;;;4920583;29;20038;-92
2023/10/29 14:24:11;;;;;;;6.68;2.50;;;;;;;;;;4920886;29;20027;-92
2023/10/29 14:29:40;;;;;;;7.10;3.08;;;;;;;;;;4937312;29;20054;-92
2023/10/29 14:32:06;;;;;;;6.82;2.50;;;;;;;;;;4926667;29;20064;-92
2023/10/29 14:34:39;;;;;;;8.38;2.88;;;;;;;;;;4921093;29;20047;-91
2023/10/29 14:37:08;;;;;;;5.55;2.67;;;;;;;;;;4921222;29;20047;-92
2023/10/29 14:39:40;;;;;;;9.32;3.10;;;;;;;;;;4921308;29;20046;-92
2023/10/29 14:42:09;;;;;;;6.90;2.60;;;;;;;;;;4920900;29;20032;-92
2023/10/29 14:45:02;;;;;;;5.43;2.50;;;;;;;;;;4921127;29;20469;-92
2023/10/29 14:47:34;;;;;;;7.28;2.75;;;;;;;;;;4911279;29;20032;-93
2023/10/29 14:50:00;;;;;;;8.50;2.60;;;;;;;;;;4920798;29;20039;-92
2023/10/29 14:55:16;;;;;;;7.53;2.50;;;;;;;;;;4917060;29;20104;-91
2023/10/29 14:57:45;;;;;;;7.38;2.60;;;;;;;;;;4920485;29;20028;-91
2023/10/29 15:00:13;;;;;;;7.47;1.85;;;;;;;;;;4919950;29;20024;-91
2023/10/29 15:02:39;;;;;;;5.50;1.90;;;;;;;;;;4919818;29;20040;-91
2023/10/29 15:05:11;;;;;;;7.35;2.33;;;;;;;;;;4920188;29;20118;-91
2023/10/29 15:07:41;;;;;;;3.72;2.00;;;;;;;;;;4937771;29;20058;-92
2023/10/29 15:10:16;;;;;;;6.30;2.10;;;;;;;;;;4922964;29;20058;-94
2023/10/29 15:12:43;;;;;;;5.60;2.10;;;;;;;;;;4924270;29;20032;-92
2023/10/29 15:15:09;;;;;;;5.93;2.70;;;;;;;;;;4923567;29;20544;-92
2023/10/29 15:17:35;;;;;;;8.90;3.30;;;;;;;;;;4901287;29;20080;-90
2023/10/29 15:20:05;;;;;;;7.03;3.00;;;;;;;;;;4892054;29;20047;-92
2023/10/29 15:22:31;;;;;;;6.38;3.53;;;;;;;;;;4870238;29;20501;-91
2023/10/29 15:24:57;;;;;;;8.80;3.25;;;;;;;;;;4878081;29;20029;-91
2023/10/29 15:27:24;;;;;;;7.03;2.70;;;;;;;;;;4886668;29;20072;-92
2023/10/29 15:29:56;;;;;;;6.07;2.65;;;;;;;;;;4886391;29;20071;-91
2023/10/29 15:32:27;;;;;;;6.32;2.85;;;;;;;;;;4873587;29;20041;-92
2023/10/29 15:35:00;;;;;;;6.65;2.85;;;;;;;;;;4867318;29;20021;-92
2023/10/29 15:37:44;;;;;;;;;;;;;;;;;;;;;
2023/10/29 15:40:39;;;;;;;;;;;;;;;;;;;;;
2023/10/29 15:43:00;;;;;;;6.53;2.35;;;;;;;;;;4893890;29;20037;-92
2023/10/29 15:45:26;;;;;;;6.25;2.88;;;;;;;;;;4866534;29;20123;-94
2023/10/29 15:47:55;;;;;;;6.32;2.25;;;;;;;;;;4874820;29;20087;-92
2023/10/29 15:53:27;;;;;;;8.32;3.60;;;;;;;;;;4922233;29;20048;-90
2023/10/29 15:56:05;;;;;;;5.57;3.47;;;;;;;;;;4904539;29;20032;-92
2023/10/29 15:58:34;;;;;;;7.32;4.00;;;;;;;;;;4904571;29;20126;-91
2023/10/29 16:01:01;;;;;;;6.90;4.43;;;;;;;;;;4904355;29;20131;-92
2023/10/29 16:03:33;;;;;;;8.38;4.72;;;;;;;;;;4922191;29;20028;-91